Notre-Dame-du-Portage, Canada
Current Conditions -  °F | °C
As of 7:53 AM on Thursday 23 Oct 2014 (Local Time) from KFVE Reporting Station
Overcast Overcast  
Wind Chill: 31°   Ceiling: 5500
Heat Index: 39°   Visibility: 10mi
Dew Point: 34°   Wind: 14mph
Humidity: 82%   Direction: 30°NNE
Pressure: 30.2"   Gusts: 20mph
Location:  47.76°N, 69.61°W
Report Text: KFVE 231153Z AUTO 03012G17KT 10SM OVC055 04/01 A3020 RMK AO2 SLP234 T00390011 10044 20039 56012
Loading
Personal Weather Stations






























Interactive Weather Map
Tropical Storm Tracking
New forecast layout! Learn more

10-Day Weather Forecast

Advertisements
Track Severe Weather on mobile